createdAt,value
2019-03-20T00:00:49.086Z,1.90
2019-03-20T00:03:19.129Z,1.80
2019-03-20T00:05:47.571Z,1.80
2019-03-20T00:08:16.011Z,1.80
2019-03-20T00:10:44.756Z,1.80
2019-03-20T00:13:13.360Z,1.80
2019-03-20T00:16:12.184Z,1.70
2019-03-20T00:18:40.636Z,1.60
2019-03-20T00:21:09.100Z,1.30
2019-03-20T00:23:37.543Z,1.40
2019-03-20T00:26:06.102Z,1.40
2019-03-20T00:28:34.623Z,1.50
2019-03-20T00:31:03.748Z,1.50
2019-03-20T00:33:32.190Z,1.60
2019-03-20T00:36:00.777Z,1.60
2019-03-20T00:38:29.313Z,1.50
2019-03-20T00:40:57.769Z,1.60
2019-03-20T00:43:26.313Z,1.50
2019-03-20T00:45:54.862Z,1.50
2019-03-20T00:48:23.583Z,1.40
2019-03-20T00:50:52.115Z,1.40
2019-03-20T00:53:20.667Z,1.40
2019-03-20T00:55:49.182Z,1.40
2019-03-20T00:58:17.660Z,1.30
2019-03-20T01:00:46.103Z,1.30
2019-03-20T01:03:14.885Z,1.30
2019-03-20T01:05:43.330Z,1.30
2019-03-20T01:08:11.949Z,1.40
2019-03-20T01:10:40.387Z,1.20
2019-03-20T01:13:09.271Z,1.20
2019-03-20T01:15:37.756Z,1.20
2019-03-20T01:18:06.267Z,1.20
2019-03-20T01:20:35.011Z,1.20
2019-03-20T01:23:03.482Z,1.20
2019-03-20T01:25:31.948Z,1.20
2019-03-20T01:28:00.388Z,1.20
2019-03-20T01:30:39.449Z,1.00
2019-03-20T01:33:12.122Z,0.80
2019-03-20T01:35:41.231Z,0.90
2019-03-20T01:38:10.576Z,0.60
2019-03-20T01:40:40.459Z,0.60
2019-03-20T01:43:09.490Z,0.70
2019-03-20T01:45:38.102Z,0.90
2019-03-20T01:48:06.726Z,0.90
2019-03-20T01:50:35.170Z,0.90
2019-03-20T01:53:04.893Z,0.90
2019-03-20T01:55:33.484Z,0.90
2019-03-20T01:58:01.949Z,1.00
2019-03-20T02:00:30.395Z,1.00
2019-03-20T02:02:58.896Z,1.10
2019-03-20T02:05:35.673Z,1.00
2019-03-20T02:07:57.686Z,1.00
2019-03-20T02:10:29.328Z,0.70
2019-03-20T02:12:58.826Z,0.60
2019-03-20T02:15:38.162Z,0.70
2019-03-20T02:17:57.989Z,0.80
2019-03-20T02:20:26.802Z,0.80
2019-03-20T02:22:55.243Z,0.90
2019-03-20T02:25:23.705Z,0.90
2019-03-20T02:27:52.402Z,0.90
2019-03-20T02:30:21.368Z,0.80
2019-03-20T02:33:20.321Z,0.70
2019-03-20T02:35:51.733Z,0.60
2019-03-20T02:38:19.201Z,0.60
2019-03-20T02:40:47.682Z,0.60
2019-03-20T02:43:16.389Z,0.60
2019-03-20T02:45:44.827Z,0.70
2019-03-20T02:48:13.287Z,0.60
2019-03-20T02:50:41.723Z,0.50
2019-03-20T02:53:10.186Z,0.50
2019-03-20T02:55:38.619Z,0.30
2019-03-20T02:58:07.163Z,0.00
2019-03-20T03:00:35.661Z,0.10
2019-03-20T03:03:04.928Z,0.20
2019-03-20T03:05:33.836Z,0.30
2019-03-20T03:08:02.323Z,0.40
2019-03-20T03:10:30.846Z,0.20
2019-03-20T03:13:05.328Z,-0.10
2019-03-20T03:15:33.804Z,-0.30
2019-03-20T03:18:02.243Z,-0.50
2019-03-20T03:20:30.703Z,-0.30
2019-03-20T03:22:59.155Z,-0.10
2019-03-20T03:25:27.623Z,0.10
2019-03-20T03:27:56.149Z,0.20
2019-03-20T03:30:24.879Z,0.30
2019-03-20T03:32:53.668Z,0.30
2019-03-20T03:35:22.144Z,0.40
2019-03-20T03:37:50.601Z,0.40
2019-03-20T03:40:20.206Z,0.50
2019-03-20T03:42:48.721Z,0.50
2019-03-20T03:45:17.554Z,0.50
2019-03-20T03:47:46.089Z,0.50
2019-03-20T03:50:14.845Z,0.30
2019-03-20T03:52:43.369Z,0.20
2019-03-20T03:55:15.632Z,0.20
2019-03-20T03:57:44.580Z,0.30
2019-03-20T04:00:18.137Z,0.30
2019-03-20T04:02:46.775Z,0.40
2019-03-20T04:05:15.388Z,0.50
2019-03-20T04:07:43.918Z,0.40
2019-03-20T04:10:19.398Z,0.40
2019-03-20T04:12:47.861Z,0.30
2019-03-20T04:15:17.433Z,0.30
2019-03-20T04:17:49.544Z,0.30
2019-03-20T04:20:19.145Z,0.00
2019-03-20T04:22:51.821Z,0.00
2019-03-20T04:25:20.264Z,0.10
2019-03-20T04:27:48.796Z,-0.20
2019-03-20T04:30:18.617Z,-0.10
2019-03-20T04:32:47.142Z,0.00
2019-03-20T04:35:15.846Z,0.10
2019-03-20T04:37:44.355Z,0.20
2019-03-20T04:40:17.303Z,-0.10
2019-03-20T04:42:45.827Z,-0.20
2019-03-20T04:45:15.039Z,-0.20
2019-03-20T04:47:44.102Z,-0.10
2019-03-20T04:50:16.250Z,0.00
2019-03-20T04:52:44.766Z,0.00
2019-03-20T04:55:13.606Z,0.00
2019-03-20T04:57:42.078Z,0.00
2019-03-20T05:00:15.996Z,0.00
2019-03-20T05:02:44.559Z,-0.20
2019-03-20T05:05:13.156Z,-0.30
2019-03-20T05:07:41.802Z,-0.30
2019-03-20T05:10:12.468Z,-0.20
2019-03-20T05:12:40.932Z,-0.20
2019-03-20T05:15:11.307Z,-0.30
2019-03-20T05:17:40.023Z,-0.50
2019-03-20T05:20:16.984Z,-0.50
2019-03-20T05:22:45.518Z,-0.50
2019-03-20T05:25:13.978Z,-0.40
2019-03-20T05:27:42.453Z,-0.30
2019-03-20T05:30:15.844Z,-0.20
2019-03-20T05:32:44.478Z,-0.10
2019-03-20T05:35:13.002Z,-0.10
2019-03-20T05:37:41.510Z,0.00
2019-03-20T05:40:14.920Z,0.00
2019-03-20T05:42:43.437Z,-0.40
2019-03-20T05:45:14.017Z,-0.40
2019-03-20T05:47:42.458Z,-0.20
2019-03-20T05:50:14.014Z,-0.20
2019-03-20T05:52:42.735Z,-0.10
2019-03-20T05:55:11.327Z,0.00
2019-03-20T05:57:40.166Z,-0.10
2019-03-20T06:00:20.515Z,-0.10
2019-03-20T06:02:48.979Z,-0.10
2019-03-20T06:05:17.605Z,-0.30
2019-03-20T06:07:46.134Z,-0.20
2019-03-20T06:10:15.919Z,-0.10
2019-03-20T06:12:44.481Z,0.00
2019-03-20T06:15:14.264Z,0.10
2019-03-20T06:17:42.732Z,0.10
2019-03-20T06:20:15.013Z,0.20
2019-03-20T06:22:43.625Z,0.20
2019-03-20T06:25:13.574Z,0.20
2019-03-20T06:27:42.128Z,0.20
2019-03-20T06:30:15.763Z,0.30
2019-03-20T06:32:44.295Z,0.40
2019-03-20T06:35:13.825Z,0.30
2019-03-20T06:37:45.820Z,0.30
2019-03-20T06:40:15.868Z,0.50
2019-03-20T06:42:44.630Z,0.70
2019-03-20T06:45:17.737Z,0.90
2019-03-20T06:47:46.195Z,1.10
2019-03-20T06:50:18.584Z,1.30
2019-03-20T06:52:47.404Z,1.50
2019-03-20T06:55:15.871Z,1.70
2019-03-20T06:57:44.450Z,1.80
2019-03-20T07:00:36.643Z,1.90
2019-03-20T07:03:14.214Z,2.00
2019-03-20T07:06:03.942Z,2.20
2019-03-20T07:08:35.762Z,2.30
2019-03-20T07:11:06.383Z,2.40
2019-03-20T07:13:34.919Z,2.50
2019-03-20T07:16:03.608Z,2.50
2019-03-20T07:18:32.299Z,2.50
2019-03-20T07:21:01.035Z,2.50
2019-03-20T07:23:29.475Z,2.60
2019-03-20T07:25:58.261Z,2.70
2019-03-20T07:28:26.962Z,2.70
2019-03-20T07:30:55.715Z,2.70
2019-03-20T07:33:27.486Z,2.70
2019-03-20T07:35:56.140Z,2.80
2019-03-20T07:38:45.977Z,2.80
2019-03-20T07:41:14.443Z,2.90
2019-03-20T07:43:44.288Z,3.00
2019-03-20T07:46:12.832Z,3.10
2019-03-20T07:48:41.529Z,3.20
2019-03-20T07:51:10.251Z,3.20
2019-03-20T07:53:38.719Z,3.30
2019-03-20T07:56:07.547Z,3.40
2019-03-20T07:58:36.279Z,3.40
2019-03-20T08:01:10.450Z,3.50
2019-03-20T08:03:39.186Z,3.60
2019-03-20T08:06:09.580Z,3.60
2019-03-20T08:08:38.307Z,3.70
2019-03-20T08:11:06.776Z,3.80
2019-03-20T08:13:35.526Z,3.90
2019-03-20T08:16:04.242Z,4.10
2019-03-20T08:18:32.785Z,4.20
2019-03-20T08:21:01.238Z,4.30
2019-03-20T08:23:29.793Z,4.40
2019-03-20T08:25:58.238Z,4.60
2019-03-20T08:28:26.725Z,4.80
2019-03-20T08:30:56.798Z,4.90
2019-03-20T08:33:25.248Z,5.10
2019-03-20T08:36:02.659Z,5.30
2019-03-20T08:38:31.117Z,5.50
2019-03-20T08:40:59.595Z,5.70
2019-03-20T08:43:28.168Z,5.90
2019-03-20T08:45:56.741Z,6.20
2019-03-20T08:48:25.536Z,6.60
2019-03-20T08:50:54.109Z,6.90
2019-03-20T08:53:22.661Z,7.30
2019-03-20T08:55:51.199Z,7.60
2019-03-20T08:58:19.712Z,8.00
2019-03-20T09:00:49.645Z,8.40
2019-03-20T09:03:18.232Z,8.70
2019-03-20T09:05:46.967Z,9.10
2019-03-20T09:08:15.508Z,10.60
2019-03-20T09:10:43.960Z,13.70
2019-03-20T09:13:12.915Z,17.20
2019-03-20T09:15:41.418Z,19.70
2019-03-20T09:18:09.987Z,21.80
2019-03-20T09:20:38.756Z,23.50
2019-03-20T09:23:07.223Z,24.40
2019-03-20T09:25:36.024Z,25.10
2019-03-20T09:28:04.557Z,26.00
2019-03-20T09:30:33.014Z,25.90
2019-03-20T09:33:01.475Z,25.80
2019-03-20T09:35:30.072Z,25.90
2019-03-20T09:37:58.545Z,25.00
2019-03-20T09:40:27.829Z,23.60
2019-03-20T09:42:56.373Z,22.40
2019-03-20T09:45:25.272Z,21.30
2019-03-20T09:47:54.091Z,20.80
2019-03-20T09:50:23.949Z,20.20
2019-03-20T09:52:52.450Z,19.90
2019-03-20T09:55:20.921Z,19.50
2019-03-20T09:57:49.455Z,18.80
2019-03-20T10:00:27.745Z,17.90
2019-03-20T10:02:56.411Z,17.10
2019-03-20T10:05:25.381Z,16.60
2019-03-20T10:07:53.913Z,16.20
2019-03-20T10:10:30.314Z,15.60
2019-03-20T10:12:58.954Z,15.40
2019-03-20T10:15:33.478Z,15.00
2019-03-20T10:18:14.363Z,15.10
2019-03-20T10:23:29.325Z,15.10
2019-03-20T10:25:58.015Z,15.10
2019-03-20T10:28:26.520Z,15.40
2019-03-20T10:30:54.992Z,15.60
2019-03-20T10:33:23.535Z,15.50
2019-03-20T10:35:52.286Z,15.40
2019-03-20T10:38:20.775Z,15.10
2019-03-20T10:40:49.448Z,14.60
2019-03-20T10:43:18.046Z,14.50
2019-03-20T10:45:46.567Z,13.50
2019-03-20T10:48:15.240Z,12.80
2019-03-20T10:50:44.640Z,13.20
2019-03-20T10:53:13.538Z,13.50
2019-03-20T10:55:42.109Z,14.00
2019-03-20T10:58:11.001Z,14.20
2019-03-20T11:00:40.818Z,14.20
2019-03-20T11:03:09.661Z,14.00
2019-03-20T11:05:38.219Z,13.90
2019-03-20T11:08:07.138Z,13.90
2019-03-20T11:10:35.701Z,14.20
2019-03-20T11:13:04.270Z,14.90
2019-03-20T11:15:32.843Z,15.40
2019-03-20T11:18:01.553Z,15.50
2019-03-20T11:20:30.103Z,15.10
2019-03-20T11:22:58.683Z,14.40
2019-03-20T11:25:28.202Z,14.00
2019-03-20T11:27:56.932Z,13.50
2019-03-20T11:30:27.510Z,13.50
2019-03-20T11:32:56.300Z,13.40
2019-03-20T11:35:24.996Z,13.50
2019-03-20T11:37:53.855Z,13.70
2019-03-20T11:40:28.333Z,13.90
2019-03-20T11:42:56.910Z,14.00
2019-03-20T11:45:25.629Z,13.80
2019-03-20T11:47:54.603Z,13.40
2019-03-20T11:50:32.185Z,13.30
2019-03-20T11:53:00.924Z,13.10
2019-03-20T11:55:29.582Z,13.10
2019-03-20T11:57:58.156Z,13.30
2019-03-20T12:00:27.677Z,13.40
2019-03-20T12:02:57.940Z,13.50
2019-03-20T12:05:26.567Z,13.50
2019-03-20T12:07:55.160Z,13.70
2019-03-20T12:10:28.390Z,14.30
2019-03-20T12:12:56.980Z,14.40
2019-03-20T12:15:25.662Z,14.40
2019-03-20T12:17:54.247Z,14.90
2019-03-20T12:20:23.856Z,15.30
2019-03-20T12:22:52.668Z,15.00
2019-03-20T12:25:27.176Z,14.50
2019-03-20T12:27:55.819Z,14.30
2019-03-20T12:30:27.096Z,14.50
2019-03-20T12:32:55.746Z,14.60
2019-03-20T12:35:25.937Z,14.40
2019-03-20T12:37:54.514Z,14.30
2019-03-20T12:40:30.383Z,14.10
2019-03-20T12:42:59.044Z,14.20
2019-03-20T12:45:30.255Z,14.80
2019-03-20T12:47:59.526Z,15.30
2019-03-20T12:50:28.250Z,16.40
2019-03-20T12:52:56.942Z,17.30
2019-03-20T12:55:25.535Z,17.30
2019-03-20T12:57:54.095Z,16.70
2019-03-20T13:00:27.528Z,16.70
2019-03-20T13:02:56.375Z,16.90
2019-03-20T13:05:25.019Z,17.10
2019-03-20T13:07:53.585Z,17.10
2019-03-20T13:10:23.279Z,16.70
2019-03-20T13:12:52.120Z,16.00
2019-03-20T13:15:30.250Z,15.60
2019-03-20T13:17:58.892Z,15.30
2019-03-20T13:20:27.944Z,15.20
2019-03-20T13:23:08.091Z,15.20
2019-03-20T13:25:36.850Z,15.10
2019-03-20T13:28:05.762Z,15.20
2019-03-20T13:30:49.347Z,14.90
2019-03-20T13:33:25.570Z,15.10
2019-03-20T13:35:48.548Z,15.60
2019-03-20T13:38:17.093Z,15.60
2019-03-20T13:40:45.697Z,16.30
2019-03-20T13:43:14.290Z,17.30
2019-03-20T13:45:42.895Z,17.60
2019-03-20T13:48:11.775Z,17.40
2019-03-20T13:50:40.654Z,17.30
2019-03-20T13:53:09.224Z,17.40
2019-03-20T13:55:37.783Z,17.60
2019-03-20T13:58:06.525Z,18.50
2019-03-20T14:00:35.098Z,19.80
2019-03-20T14:03:03.669Z,21.60
2019-03-20T14:05:32.234Z,22.30
2019-03-20T14:08:00.794Z,23.80
2019-03-20T14:10:30.918Z,25.60
2019-03-20T14:12:59.482Z,26.90
2019-03-20T14:15:28.066Z,27.70
2019-03-20T14:17:56.619Z,26.80
2019-03-20T14:20:33.195Z,25.90
2019-03-20T14:23:02.608Z,26.10
2019-03-20T14:25:31.170Z,27.10
2019-03-20T14:27:59.742Z,26.70
2019-03-20T14:30:34.807Z,26.90
2019-03-20T14:33:03.405Z,26.10
2019-03-20T14:35:32.295Z,26.40
2019-03-20T14:38:01.146Z,26.40
2019-03-20T14:40:36.137Z,26.40
2019-03-20T14:43:01.981Z,26.00
2019-03-20T14:45:30.600Z,24.60
2019-03-20T14:47:59.600Z,23.20
2019-03-20T14:50:32.876Z,22.00
2019-03-20T14:53:01.478Z,20.00
2019-03-20T14:55:30.786Z,19.10
2019-03-20T14:57:59.611Z,18.40
2019-03-20T15:00:29.031Z,17.90
2019-03-20T15:02:57.611Z,18.40
2019-03-20T15:05:26.249Z,18.10
2019-03-20T15:07:55.171Z,17.40
2019-03-20T15:10:24.987Z,16.50
2019-03-20T15:12:54.568Z,15.90
2019-03-20T15:15:44.036Z,15.30
2019-03-20T15:18:12.594Z,14.90
2019-03-20T15:20:41.334Z,14.70
2019-03-20T15:23:10.133Z,14.40
2019-03-20T15:25:38.735Z,14.30
2019-03-20T15:28:07.963Z,14.40
2019-03-20T15:30:36.800Z,14.40
2019-03-20T15:33:05.465Z,14.40
2019-03-20T15:35:34.308Z,14.90
2019-03-20T15:38:02.869Z,14.90
2019-03-20T15:40:31.794Z,14.90
2019-03-20T15:43:00.655Z,15.10
2019-03-20T15:45:29.546Z,15.80
2019-03-20T15:47:58.401Z,16.00
2019-03-20T15:50:27.814Z,16.30
2019-03-20T15:52:56.387Z,17.00
2019-03-20T15:55:30.136Z,16.60
2019-03-20T15:57:59.066Z,15.60
2019-03-20T16:00:27.980Z,15.70
2019-03-20T16:03:10.972Z,16.20
2019-03-20T16:05:39.546Z,15.80
2019-03-20T16:08:08.122Z,15.10
2019-03-20T16:10:36.699Z,15.00
2019-03-20T16:13:05.398Z,14.60
2019-03-20T16:15:34.899Z,14.30
2019-03-20T16:18:03.453Z,14.20
2019-03-20T16:20:32.029Z,14.00
2019-03-20T16:23:00.588Z,13.70
2019-03-20T16:25:29.163Z,13.40
2019-03-20T16:27:57.721Z,13.40
2019-03-20T16:30:28.628Z,13.10
2019-03-20T16:32:57.177Z,12.90
2019-03-20T16:35:26.710Z,12.70
2019-03-20T16:37:55.264Z,12.50
2019-03-20T16:40:27.231Z,12.30
2019-03-20T16:42:55.820Z,12.10
2019-03-20T16:45:31.592Z,11.90
2019-03-20T16:48:00.604Z,11.70
2019-03-20T16:50:29.276Z,11.50
2019-03-20T16:52:57.901Z,11.40
2019-03-20T16:55:26.458Z,11.10
2019-03-20T16:57:55.159Z,10.90
2019-03-20T17:00:29.381Z,10.70
2019-03-20T17:02:58.103Z,10.40
2019-03-20T17:05:27.705Z,10.30
2019-03-20T17:07:56.360Z,10.20
2019-03-20T17:10:27.435Z,10.00
2019-03-20T17:12:56.254Z,9.90
2019-03-20T17:15:26.947Z,9.80
2019-03-20T17:17:55.786Z,9.60
2019-03-20T17:20:24.782Z,9.50
2019-03-20T17:22:53.421Z,9.40
2019-03-20T17:25:22.331Z,9.20
2019-03-20T17:27:50.903Z,9.10
2019-03-20T17:30:25.431Z,9.10
2019-03-20T17:32:54.167Z,9.00
2019-03-20T17:35:22.789Z,8.90
2019-03-20T17:37:51.338Z,8.80
2019-03-20T17:40:23.233Z,8.70
2019-03-20T17:42:51.786Z,8.60
2019-03-20T17:45:25.548Z,8.50
2019-03-20T17:47:54.135Z,8.40
2019-03-20T17:50:24.730Z,8.30
2019-03-20T17:52:53.671Z,8.20
2019-03-20T17:55:22.386Z,8.10
2019-03-20T17:57:51.363Z,8.00
2019-03-20T18:00:26.068Z,7.90
2019-03-20T18:02:54.638Z,7.80
2019-03-20T18:05:23.494Z,7.70
2019-03-20T18:07:52.048Z,7.50
2019-03-20T18:10:20.950Z,7.40
2019-03-20T18:12:49.523Z,7.30
2019-03-20T18:15:18.954Z,7.20
2019-03-20T18:17:47.778Z,7.00
2019-03-20T18:20:18.076Z,7.00
2019-03-20T18:22:46.679Z,6.90
2019-03-20T18:25:15.436Z,6.80
2019-03-20T18:27:44.055Z,6.80
2019-03-20T18:30:20.429Z,6.70
2019-03-20T18:32:48.983Z,6.70
2019-03-20T18:35:17.990Z,6.60
2019-03-20T18:37:46.715Z,6.50
2019-03-20T18:40:19.313Z,6.50
2019-03-20T18:42:47.844Z,6.40
2019-03-20T18:45:27.360Z,6.30
2019-03-20T18:47:56.238Z,6.30
2019-03-20T18:50:25.719Z,6.20
2019-03-20T18:52:54.512Z,6.20
2019-03-20T18:55:23.142Z,6.10
2019-03-20T18:57:51.675Z,6.00
2019-03-20T19:00:30.738Z,5.90
2019-03-20T19:03:17.331Z,5.80
2019-03-20T19:05:54.517Z,5.80
2019-03-20T19:08:23.399Z,5.70
2019-03-20T19:10:52.303Z,5.60
2019-03-20T19:13:21.103Z,5.60
2019-03-20T19:15:49.626Z,5.50
2019-03-20T19:18:18.399Z,5.50
2019-03-20T19:20:46.979Z,5.40
2019-03-20T19:23:15.689Z,5.40
2019-03-20T19:25:44.166Z,5.30
2019-03-20T19:28:12.610Z,5.20
2019-03-20T19:30:47.150Z,5.20
2019-03-20T19:33:15.695Z,5.10
2019-03-20T19:35:44.145Z,5.10
2019-03-20T19:38:12.669Z,4.90
2019-03-20T19:40:41.126Z,4.90
2019-03-20T19:43:09.829Z,4.80
2019-03-20T19:45:38.270Z,4.70
2019-03-20T19:48:06.798Z,4.50
2019-03-20T19:50:41.315Z,4.50
2019-03-20T19:53:10.207Z,4.50
2019-03-20T19:55:38.747Z,4.10
2019-03-20T19:58:07.203Z,3.80
2019-03-20T20:00:35.968Z,3.70
2019-03-20T20:03:04.491Z,3.70
2019-03-20T20:05:32.944Z,3.80
2019-03-20T20:08:01.651Z,3.90
2019-03-20T20:10:30.379Z,3.90
2019-03-20T20:12:58.826Z,3.80
2019-03-20T20:15:31.699Z,3.80
2019-03-20T20:18:00.397Z,3.80
2019-03-20T20:20:33.417Z,3.80
2019-03-20T20:23:04.274Z,3.90
2019-03-20T20:25:32.303Z,4.00
2019-03-20T20:28:00.737Z,4.00
2019-03-20T20:30:29.369Z,3.70
2019-03-20T20:32:57.813Z,3.70
2019-03-20T20:35:26.349Z,3.70
2019-03-20T20:37:55.226Z,3.90
2019-03-20T20:40:28.115Z,4.00
2019-03-20T20:42:56.565Z,4.00
2019-03-20T20:45:25.066Z,3.90
2019-03-20T20:47:53.532Z,3.90
2019-03-20T20:50:21.988Z,3.80
2019-03-20T20:52:50.567Z,3.70
2019-03-20T20:55:22.793Z,3.70
2019-03-20T20:57:51.378Z,3.70
2019-03-20T21:00:24.714Z,3.60
2019-03-20T21:02:53.268Z,3.50
2019-03-20T21:05:22.249Z,3.50
2019-03-20T21:07:50.726Z,3.40
2019-03-20T21:10:20.397Z,3.30
2019-03-20T21:12:56.240Z,3.30
2019-03-20T21:15:34.525Z,3.40
2019-03-20T21:18:14.745Z,3.30
2019-03-20T21:20:43.923Z,3.00
2019-03-20T21:23:39.694Z,3.00
2019-03-20T21:26:29.398Z,3.10
2019-03-20T21:29:34.543Z,3.10
2019-03-20T21:32:12.213Z,3.00
2019-03-20T21:35:00.640Z,3.10
2019-03-20T21:37:49.095Z,3.00
2019-03-20T21:40:19.444Z,3.00
2019-03-20T21:43:10.657Z,2.90
2019-03-20T21:45:48.038Z,2.90
2019-03-20T21:48:16.484Z,2.90
2019-03-20T21:51:00.042Z,2.90
2019-03-20T21:53:40.564Z,2.90
2019-03-20T21:56:33.937Z,2.90
2019-03-20T21:59:05.449Z,2.80
2019-03-20T22:01:53.303Z,2.60
2019-03-20T22:04:21.737Z,2.50
2019-03-20T22:07:09.206Z,2.60
2019-03-20T22:09:56.038Z,2.70
2019-03-20T22:12:42.507Z,2.70
2019-03-20T22:15:31.839Z,2.80
2019-03-20T22:18:37.162Z,2.80
2019-03-20T22:21:20.657Z,2.90
2019-03-20T22:24:17.685Z,2.90
2019-03-20T22:26:49.202Z,2.80
2019-03-20T22:29:42.159Z,2.80
2019-03-20T22:32:31.582Z,2.70
2019-03-20T22:35:14.369Z,2.60
2019-03-20T22:37:43.086Z,2.60
2019-03-20T22:40:17.286Z,2.60
2019-03-20T22:42:51.555Z,2.60
2019-03-20T22:45:38.110Z,2.30
2019-03-20T22:48:21.743Z,2.20
2019-03-20T22:51:24.945Z,2.00
2019-03-20T22:54:07.942Z,2.00
2019-03-20T22:56:42.281Z,2.10
2019-03-20T22:59:10.752Z,2.20
2019-03-20T23:01:45.814Z,2.30
2019-03-20T23:04:29.339Z,2.40
2019-03-20T23:06:57.862Z,2.50
2019-03-20T23:09:26.327Z,2.50
2019-03-20T23:11:55.247Z,2.60
2019-03-20T23:14:23.979Z,2.60
2019-03-20T23:16:52.421Z,2.70
2019-03-20T23:19:21.306Z,2.70
2019-03-20T23:21:49.765Z,2.70
2019-03-20T23:24:18.597Z,2.70
2019-03-20T23:26:47.391Z,2.70
2019-03-20T23:29:15.831Z,2.70
2019-03-20T23:31:44.608Z,2.80
2019-03-20T23:34:13.050Z,2.80
2019-03-20T23:36:41.935Z,2.80
2019-03-20T23:39:10.393Z,2.80
2019-03-20T23:41:39.143Z,2.90
2019-03-20T23:44:07.656Z,2.90
2019-03-20T23:46:36.530Z,2.90
2019-03-20T23:49:11.214Z,2.80
2019-03-20T23:51:38.958Z,2.80
2019-03-20T23:54:07.665Z,2.80
2019-03-20T23:56:38.715Z,2.70
2019-03-20T23:59:07.410Z,2.70
